Aeroporto :
LOGIN :

Iscrizione | Disclaimer

   EN    FR    IT 

 










Sommario :    VFR   VFR Marginale   IFR   IFR Intensivo   IFR Molto Intensivo
Visibilità : 
Base nubi : 
>= 8 km
>= 3000ft
5 / 8 km
1000 / 3000 ft
1500m / 5 km
500 / 1000 ft
800 / 1500m
200 / 500 ft
< 800m
< 200 ft
Simboli :   Temporali  Nebbia  Neve Forte  Precipitazioni Forti  Vento > 20 kt
SIGMETs :   Varie  Temporali  Ghiacco  Turbolenza  Onda orograficha  Ceneri Vulcaniche






- Altitudine del aeroporto : 1247 ft
- Codice IATA : PRG


LKPR - Praha Ruzyne

ULTIMO METAR :
  • 270500Z 27004KT CAVOK 09/07 Q1033 NOSIG

METARs OBSOLETI :
  • 270430Z 26006KT CAVOK 09/06 Q1033 NOSIG
  • 270400Z 26007KT CAVOK 07/05 Q1033 NOSIG
  • 270330Z 26008KT CAVOK 06/04 Q1033 NOSIG
  • 270300Z 26008KT CAVOK 06/04 Q1033 NOSIG
  • 270230Z 26008KT CAVOK 06/04 Q1033 NOSIG

TAF TAF LKPR
Valido dal 27 a 00 ore il 28 a 06 ore UTC


262300Z 2700/2806 32006KT CAVOK
TEMPO 2710/2719 35016KT
BECMG 2800/2802 35012KT 9999 BKN033
TEMPO 2802/2806 36014G26KT 5000 RA BR OVC011



MetMap, La meteo Aeronautica in un colpo d'occhio ! - Copyright ORBIFLY Dicembre 2007 - Disclaimer

ORBIFLY MET'MAP TEAM :

Programmazione e sviluppo : Alexandra Zaïnal
Concezione : Baudouin d'Aumeries
Aiuto per la programmazione : Marc-Olivier Méhu
Supporto tecnico e logistico : Manuel Goepfert
Aiuto per la traduzione : Arnaldo La Scala

Contatto : metmap@orbifly.com




FONTI E CREDITI :

   NOAA